createdAt,value
2022-12-15T00:01:54.064Z,97178.66
2022-12-15T00:04:41.216Z,97188.34
2022-12-15T00:07:27.302Z,97200.13
2022-12-15T00:10:13.371Z,97208.84
2022-12-15T00:12:59.296Z,97224.63
2022-12-15T00:15:44.823Z,97233.34
2022-12-15T00:18:30.130Z,97227.53
2022-12-15T00:21:19.563Z,97228.75
2022-12-15T00:24:05.696Z,97224.97
2022-12-15T00:26:51.735Z,97236.72
2022-12-15T00:29:37.750Z,97250.44
2022-12-15T00:32:23.852Z,97248.38
2022-12-15T00:35:09.848Z,97249.13
2022-12-15T00:37:55.898Z,97239.19
2022-12-15T00:40:23.006Z,97237.50
2022-12-15T00:42:49.972Z,97225.34
2022-12-15T00:45:17.398Z,97233.47
2022-12-15T00:47:44.205Z,97251.81
2022-12-15T00:50:30.278Z,97260.41
2022-12-15T00:53:16.067Z,97268.91
2022-12-15T00:56:03.963Z,97279.25
2022-12-15T00:58:49.974Z,97288.94
2022-12-15T01:01:37.994Z,97272.44
2022-12-15T01:04:23.374Z,97256.41
2022-12-15T01:07:09.110Z,97271.00
2022-12-15T01:09:54.841Z,97287.97
2022-12-15T01:12:40.207Z,97278.28
2022-12-15T01:15:26.432Z,97285.19
2022-12-15T01:18:11.996Z,97304.81
2022-12-15T01:20:39.523Z,97279.97
2022-12-15T01:23:06.314Z,97282.25
2022-12-15T01:25:33.399Z,97279.47
2022-12-15T01:28:00.464Z,97280.69
2022-12-15T01:30:27.783Z,97284.94
2022-12-15T01:32:54.629Z,97280.81
2022-12-15T01:35:22.789Z,97296.84
2022-12-15T01:37:50.049Z,97286.03
2022-12-15T01:40:39.144Z,97301.22
2022-12-15T01:43:14.620Z,97297.69
2022-12-15T01:45:49.186Z,97301.91
2022-12-15T01:48:35.883Z,97300.59
2022-12-15T01:51:11.196Z,97309.59
2022-12-15T01:53:50.117Z,97319.88
2022-12-15T01:56:18.834Z,97321.72
2022-12-15T01:58:49.321Z,97323.88
2022-12-15T02:01:16.246Z,97336.84
2022-12-15T02:03:45.146Z,97345.69
2022-12-15T02:06:13.158Z,97342.91
2022-12-15T02:08:41.932Z,97354.41
2022-12-15T02:11:11.810Z,97338.63
2022-12-15T02:14:02.015Z,97317.44
2022-12-15T02:17:03.042Z,97301.41
2022-12-15T02:19:44.264Z,97337.69
2022-12-15T02:22:30.711Z,97340.84
2022-12-15T02:25:34.557Z,97319.72
2022-12-15T02:28:56.949Z,97341.31
2022-12-15T02:31:51.462Z,97331.84
2022-12-15T02:34:21.332Z,97342.41
2022-12-15T02:36:54.695Z,97353.19
2022-12-15T02:39:23.887Z,97334.28
2022-12-15T02:41:53.010Z,97321.44
2022-12-15T02:44:22.853Z,97332.22
2022-12-15T02:46:59.441Z,97350.28
2022-12-15T02:49:41.575Z,97354.41
2022-12-15T02:52:39.530Z,97351.94
2022-12-15T02:55:16.642Z,97344.91
2022-12-15T02:58:03.264Z,97353.78
2022-12-15T03:00:37.735Z,97364.34
2022-12-15T03:03:06.252Z,97372.44
2022-12-15T03:05:33.726Z,97390.44
2022-12-15T03:08:01.431Z,97385.72
2022-12-15T03:10:28.867Z,97379.41
2022-12-15T03:12:55.942Z,97381.31
2022-12-15T03:15:22.742Z,97377.47
2022-12-15T03:17:50.199Z,97379.16
2022-12-15T03:20:17.609Z,97374.09
2022-12-15T03:22:44.897Z,97388.38
2022-12-15T03:25:12.390Z,97396.66
2022-12-15T03:27:39.467Z,97401.03
2022-12-15T03:30:07.123Z,97413.91
2022-12-15T03:32:35.226Z,97417.53
2022-12-15T03:35:02.293Z,97431.28
2022-12-15T03:37:29.637Z,97429.97
2022-12-15T03:39:56.976Z,97428.25
2022-12-15T03:42:42.786Z,97441.16
2022-12-15T03:45:10.607Z,97432.59
2022-12-15T03:47:41.927Z,97438.47
2022-12-15T03:50:09.670Z,97440.03
2022-12-15T03:52:36.532Z,97439.19
2022-12-15T03:55:04.670Z,97432.88
2022-12-15T03:57:31.822Z,97436.50
2022-12-15T03:59:58.628Z,97445.47
2022-12-15T04:02:25.697Z,97435.13
2022-12-15T04:04:53.490Z,97444.53
2022-12-15T04:07:20.362Z,97443.78
2022-12-15T04:09:47.213Z,97468.03
2022-12-15T04:12:14.036Z,97449.88
2022-12-15T04:14:42.718Z,97435.41
2022-12-15T04:17:10.731Z,97447.94
2022-12-15T04:20:04.325Z,97447.69
2022-12-15T04:22:31.174Z,97464.34
2022-12-15T04:25:16.803Z,97455.97
2022-12-15T04:28:02.143Z,97457.19
2022-12-15T04:30:49.380Z,97467.66
2022-12-15T04:33:36.184Z,97487.56
2022-12-15T04:36:22.212Z,97492.91
2022-12-15T04:39:07.657Z,97496.31
2022-12-15T04:41:53.206Z,97500.16
2022-12-15T04:44:39.118Z,97501.38
2022-12-15T04:47:24.584Z,97492.28
2022-12-15T04:50:09.995Z,97491.41
2022-12-15T04:52:55.306Z,97495.56
2022-12-15T04:55:40.729Z,97511.44
2022-12-15T04:58:27.437Z,97509.38
2022-12-15T05:01:15.927Z,97512.78
2022-12-15T05:04:02.048Z,97524.31
2022-12-15T05:06:47.635Z,97531.34
2022-12-15T05:09:32.817Z,97524.25
2022-12-15T05:12:18.085Z,97524.16
2022-12-15T05:15:03.450Z,97518.06
2022-12-15T05:17:48.877Z,97515.91
2022-12-15T05:20:34.188Z,97527.44
2022-12-15T05:23:19.599Z,97530.50
2022-12-15T05:26:04.955Z,97535.44
2022-12-15T05:28:50.569Z,97534.59
2022-12-15T05:31:36.010Z,97543.97
2022-12-15T05:34:05.680Z,97550.06
2022-12-15T05:36:33.348Z,97552.09
2022-12-15T05:39:00.162Z,97570.09
2022-12-15T05:41:27.063Z,97568.53
2022-12-15T05:43:53.943Z,97559.16
2022-12-15T05:46:20.878Z,97564.25
2022-12-15T05:48:47.847Z,97577.59
2022-12-15T05:51:15.250Z,97577.97
2022-12-15T05:53:42.701Z,97581.38
2022-12-15T05:56:14.612Z,97593.25
2022-12-15T05:58:45.410Z,97595.91
2022-12-15T06:01:18.277Z,97611.47
2022-12-15T06:03:46.024Z,97602.09
2022-12-15T06:06:13.440Z,97599.91
2022-12-15T06:08:42.527Z,97604.66
2022-12-15T06:11:14.831Z,97620.56
2022-12-15T06:13:42.396Z,97632.72
2022-12-15T06:16:17.796Z,97623.34
2022-12-15T06:18:49.902Z,97635.63
2022-12-15T06:21:20.189Z,97645.25
2022-12-15T06:23:48.135Z,97656.66
2022-12-15T06:26:15.246Z,97651.22
2022-12-15T06:28:42.249Z,97664.47
2022-12-15T06:31:11.382Z,97663.16
2022-12-15T06:33:39.455Z,97666.56
2022-12-15T06:36:09.280Z,97669.00
2022-12-15T06:38:36.778Z,97673.84
2022-12-15T06:41:06.151Z,97669.22
2022-12-15T06:43:34.461Z,97675.53
2022-12-15T06:46:03.044Z,97680.44
2022-12-15T06:48:30.532Z,97678.09
2022-12-15T06:51:02.158Z,97682.06
2022-12-15T06:53:29.354Z,97680.66
2022-12-15T06:56:02.287Z,97675.31
2022-12-15T06:58:29.330Z,97684.25
2022-12-15T07:00:56.788Z,97685.84
2022-12-15T07:03:23.779Z,97684.78
2022-12-15T07:06:08.378Z,97691.38
2022-12-15T07:08:41.404Z,97697.72
2022-12-15T07:11:12.201Z,97711.81
2022-12-15T07:13:39.965Z,97697.25
2022-12-15T07:16:08.461Z,97692.38
2022-12-15T07:18:35.328Z,97696.31
2022-12-15T07:21:05.040Z,97708.13
2022-12-15T07:23:53.410Z,97705.69
2022-12-15T07:26:19.998Z,97704.47
2022-12-15T07:28:46.865Z,97698.69
2022-12-15T07:31:14.269Z,97694.88
2022-12-15T07:33:41.671Z,97690.28
2022-12-15T07:36:08.964Z,97700.53
2022-12-15T07:38:36.377Z,97708.09
2022-12-15T07:41:05.617Z,97708.41
2022-12-15T07:43:33.073Z,97717.38
2022-12-15T07:46:01.270Z,97717.78
2022-12-15T07:48:28.611Z,97733.97
2022-12-15T07:51:04.930Z,97733.00
2022-12-15T07:53:34.797Z,97739.59
2022-12-15T07:56:10.294Z,97738.50
2022-12-15T07:58:38.965Z,97744.97
2022-12-15T08:01:08.005Z,97750.97
2022-12-15T08:03:37.145Z,97729.94
2022-12-15T08:06:10.511Z,97749.13
2022-12-15T08:08:38.576Z,97755.75
2022-12-15T08:11:09.507Z,97756.69
2022-12-15T08:16:25.879Z,97751.03
2022-12-15T08:18:53.407Z,97756.06
2022-12-15T08:21:20.463Z,97752.91
2022-12-15T08:23:47.891Z,97770.78
2022-12-15T08:26:18.384Z,97777.06
2022-12-15T08:28:46.178Z,97771.75
2022-12-15T08:31:17.473Z,97778.13
2022-12-15T08:33:46.501Z,97773.91
2022-12-15T08:36:15.594Z,97773.81
2022-12-15T08:38:43.997Z,97782.97
2022-12-15T08:41:17.495Z,97787.31
2022-12-15T08:43:48.679Z,97777.22
2022-12-15T08:46:18.194Z,97789.16
2022-12-15T08:48:45.870Z,97790.38
2022-12-15T08:51:13.528Z,97793.47
2022-12-15T08:53:40.342Z,97794.31
2022-12-15T08:56:13.440Z,97791.75
2022-12-15T08:58:40.580Z,97780.97
2022-12-15T09:01:23.748Z,97785.22
2022-12-15T09:03:53.918Z,97784.63
2022-12-15T09:06:31.022Z,97779.88
2022-12-15T09:09:00.352Z,97779.28
2022-12-15T09:11:28.926Z,97782.47
2022-12-15T09:13:57.328Z,97787.56
2022-12-15T09:16:24.712Z,97778.66
2022-12-15T09:18:56.205Z,97785.38
2022-12-15T09:21:26.550Z,97789.63
2022-12-15T09:23:55.947Z,97784.88
2022-12-15T09:26:23.851Z,97780.75
2022-12-15T09:28:52.349Z,97785.97
2022-12-15T09:31:25.858Z,97778.31
2022-12-15T09:33:55.186Z,97779.38
2022-12-15T09:36:22.496Z,97768.78
2022-12-15T09:38:50.027Z,97766.94
2022-12-15T09:41:25.830Z,97767.91
2022-12-15T09:43:56.549Z,97772.91
2022-12-15T09:46:42.384Z,97770.22
2022-12-15T09:49:29.761Z,97776.91
2022-12-15T09:52:10.680Z,97773.31
2022-12-15T09:54:41.868Z,97776.25
2022-12-15T09:57:25.489Z,97785.03
2022-12-15T10:00:01.674Z,97788.34
2022-12-15T10:03:04.929Z,97790.78
2022-12-15T10:08:45.631Z,97789.69
2022-12-15T10:11:31.325Z,97791.09
2022-12-15T10:14:15.947Z,97795.13
2022-12-15T10:16:58.475Z,97791.19
2022-12-15T10:19:39.979Z,97789.59
2022-12-15T10:22:13.395Z,97785.41
2022-12-15T10:27:41.089Z,97784.91
2022-12-15T10:30:11.758Z,97794.75
2022-12-15T10:35:39.995Z,97789.22
2022-12-15T10:38:34.507Z,97795.22
2022-12-15T10:41:05.207Z,97789.50
2022-12-15T10:43:42.016Z,97795.97
2022-12-15T10:46:09.523Z,97798.16
2022-12-15T10:48:37.183Z,97793.81
2022-12-15T10:51:26.976Z,97798.41
2022-12-15T10:54:15.787Z,97795.06
2022-12-15T10:56:52.816Z,97787.34
2022-12-15T10:59:33.266Z,97790.75
2022-12-15T11:02:38.756Z,97786.66
2022-12-15T11:05:15.524Z,97784.56
2022-12-15T11:07:46.421Z,97781.63
2022-12-15T11:10:19.915Z,97783.63
2022-12-15T11:13:11.264Z,97770.06
2022-12-15T11:15:56.499Z,97768.41
2022-12-15T11:18:38.828Z,97776.22
2022-12-15T11:21:32.899Z,97773.84
2022-12-15T11:24:26.042Z,97786.88
2022-12-15T11:27:01.939Z,97773.75
2022-12-15T11:29:51.965Z,97780.84
2022-12-15T11:32:25.320Z,97780.53
2022-12-15T11:34:52.628Z,97774.72
2022-12-15T11:37:45.483Z,97767.59
2022-12-15T11:40:36.112Z,97765.91
2022-12-15T11:43:30.062Z,97778.06
2022-12-15T11:46:19.557Z,97782.97
2022-12-15T11:49:08.272Z,97798.09
2022-12-15T11:51:41.635Z,97795.63
2022-12-15T11:54:36.401Z,97797.03
2022-12-15T11:57:21.519Z,97792.81
2022-12-15T12:00:02.083Z,97786.84
2022-12-15T12:03:10.151Z,97801.16
2022-12-15T12:05:49.540Z,97808.25
2022-12-15T12:12:04.569Z,97817.38
2022-12-15T12:14:54.610Z,97814.53
2022-12-15T12:17:34.156Z,97818.28
2022-12-15T12:20:11.644Z,97812.69
2022-12-15T12:22:50.604Z,97816.50
2022-12-15T12:25:22.288Z,97809.63
2022-12-15T12:27:50.372Z,97822.13
2022-12-15T12:30:23.524Z,97829.06
2022-12-15T12:33:32.955Z,97823.56
2022-12-15T12:36:07.384Z,97827.22
2022-12-15T12:38:39.975Z,97826.59
2022-12-15T12:41:21.373Z,97832.81
2022-12-15T12:44:01.750Z,97829.19
2022-12-15T12:46:34.380Z,97838.50
2022-12-15T12:49:27.523Z,97831.16
2022-12-15T12:51:58.687Z,97844.81
2022-12-15T12:54:34.377Z,97846.50
2022-12-15T12:57:13.234Z,97850.47
2022-12-15T12:59:49.110Z,97843.94
2022-12-15T13:02:21.957Z,97843.88
2022-12-15T13:05:00.683Z,97854.38
2022-12-15T13:07:40.832Z,97847.38
2022-12-15T13:10:07.758Z,97854.75
2022-12-15T13:12:59.478Z,97849.28
2022-12-15T13:15:42.557Z,97848.78
2022-12-15T13:18:17.129Z,97857.09
2022-12-15T13:20:48.868Z,97857.44
2022-12-15T13:23:25.499Z,97866.44
2022-12-15T13:25:55.848Z,97869.75
2022-12-15T13:31:33.739Z,97865.84
2022-12-15T13:34:14.325Z,97866.22
2022-12-15T13:36:41.521Z,97872.56
2022-12-15T13:39:17.374Z,97876.34
2022-12-15T13:42:15.277Z,97878.84
2022-12-15T13:44:48.785Z,97888.16
2022-12-15T13:47:19.025Z,97887.69
2022-12-15T13:50:01.368Z,97882.78
2022-12-15T13:53:08.587Z,97888.75
2022-12-15T13:55:35.182Z,97902.78
2022-12-15T13:58:18.097Z,97896.25
2022-12-15T14:00:55.626Z,97887.47
2022-12-15T14:03:24.578Z,97893.00
2022-12-15T14:08:45.778Z,97903.16
2022-12-15T14:11:51.243Z,97893.00
2022-12-15T14:14:29.842Z,97891.34
2022-12-15T14:17:02.565Z,97894.75
2022-12-15T14:19:41.549Z,97890.53
2022-12-15T14:22:42.722Z,97896.78
2022-12-15T14:25:29.680Z,97897.34
2022-12-15T14:27:57.042Z,97901.31
2022-12-15T14:30:25.689Z,97907.28
2022-12-15T14:33:03.933Z,97906.28
2022-12-15T14:35:43.095Z,97919.75
2022-12-15T14:38:22.006Z,97913.50
2022-12-15T14:40:52.052Z,97916.47
2022-12-15T14:43:26.542Z,97914.63
2022-12-15T14:46:05.495Z,97929.03
2022-12-15T14:48:42.079Z,97934.28
2022-12-15T14:51:11.724Z,97935.28
2022-12-15T14:53:41.301Z,97933.84
2022-12-15T14:56:25.744Z,97953.38
2022-12-15T14:58:59.825Z,97959.75
2022-12-15T15:01:33.636Z,97958.16
2022-12-15T15:03:04.870Z,97817.34
2022-12-15T15:03:09.493Z,97796.22
2022-12-15T15:03:10.165Z,97894.03
2022-12-15T15:03:16.220Z,97868.09
2022-12-15T15:04:03.081Z,97963.81
2022-12-15T15:06:38.659Z,97960.56
2022-12-15T15:09:23.075Z,97954.69
2022-12-15T15:11:54.683Z,97954.56
2022-12-15T15:14:47.158Z,97971.44
2022-12-15T15:17:14.701Z,97970.84
2022-12-15T15:19:49.240Z,97970.13
2022-12-15T15:22:43.714Z,97970.25
2022-12-15T15:25:29.155Z,97975.88
2022-12-15T15:28:08.896Z,97959.16
2022-12-15T15:30:57.597Z,97968.94
2022-12-15T15:33:25.477Z,97983.94
2022-12-15T15:35:55.882Z,97985.78
2022-12-15T15:38:28.686Z,97979.53
2022-12-15T15:40:58.279Z,97975.03
2022-12-15T15:43:26.621Z,97972.34
2022-12-15T15:46:02.455Z,97980.41
2022-12-15T15:48:34.903Z,97976.00
2022-12-15T15:51:03.673Z,97983.22
2022-12-15T15:53:33.247Z,97984.06
2022-12-15T15:56:02.855Z,97984.78
2022-12-15T15:58:30.100Z,97992.72
2022-12-15T16:00:57.321Z,98010.69
2022-12-15T16:03:25.792Z,97994.56
2022-12-15T16:05:53.255Z,98005.31
2022-12-15T16:08:32.485Z,97999.94
2022-12-15T16:11:00.299Z,97990.88
2022-12-15T16:13:28.066Z,97996.25
2022-12-15T16:15:55.532Z,97998.94
2022-12-15T16:18:22.363Z,98016.06
2022-12-15T16:20:51.734Z,98004.47
2022-12-15T16:23:26.411Z,98012.38
2022-12-15T16:25:55.329Z,98002.28
2022-12-15T16:28:24.455Z,98007.16
2022-12-15T16:30:51.462Z,98009.84
2022-12-15T16:33:19.327Z,98020.72
2022-12-15T16:35:50.127Z,98018.28
2022-12-15T16:38:24.911Z,98023.41
2022-12-15T16:40:53.057Z,98018.88
2022-12-15T16:43:26.895Z,98025.38
2022-12-15T16:45:56.304Z,98032.22
2022-12-15T16:48:23.355Z,98026.00
2022-12-15T16:50:58.540Z,98035.63
2022-12-15T16:53:30.761Z,98041.00
2022-12-15T16:56:01.697Z,98046.25
2022-12-15T16:58:30.589Z,98035.88
2022-12-15T17:00:58.509Z,98041.97
2022-12-15T17:03:29.009Z,98046.38
2022-12-15T17:06:02.079Z,98052.59
2022-12-15T17:08:43.891Z,98061.53
2022-12-15T17:11:18.323Z,98067.88
2022-12-15T17:13:51.577Z,98059.94
2022-12-15T17:16:20.238Z,98071.41
2022-12-15T17:18:47.732Z,98066.16
2022-12-15T17:21:25.862Z,98068.84
2022-12-15T17:23:56.879Z,98063.88
2022-12-15T17:26:29.956Z,98055.50
2022-12-15T17:29:13.548Z,98054.06
2022-12-15T17:31:40.849Z,98056.50
2022-12-15T17:34:24.517Z,98051.63
2022-12-15T17:36:52.306Z,98060.44
2022-12-15T17:39:21.727Z,98062.63
2022-12-15T17:42:07.387Z,98067.13
2022-12-15T17:44:37.853Z,98061.16
2022-12-15T17:47:08.585Z,98070.22
2022-12-15T17:49:38.615Z,98058.63
2022-12-15T17:52:30.359Z,98075.47
2022-12-15T17:54:58.162Z,98076.31
2022-12-15T17:57:25.768Z,98084.50
2022-12-15T17:59:53.259Z,98071.06
2022-12-15T18:02:20.468Z,98080.19
2022-12-15T18:04:47.678Z,98087.16
2022-12-15T18:07:23.281Z,98088.16
2022-12-15T18:09:52.288Z,98080.19
2022-12-15T18:12:22.551Z,98077.53
2022-12-15T18:14:50.747Z,98082.91
2022-12-15T18:17:17.580Z,98078.47
2022-12-15T18:19:45.055Z,98085.94
2022-12-15T18:22:21.706Z,98083.41
2022-12-15T18:24:51.072Z,98077.53
2022-12-15T18:27:24.103Z,98086.31
2022-12-15T18:29:51.401Z,98096.59
2022-12-15T18:32:18.763Z,98088.28
2022-12-15T18:34:47.010Z,98101.72
2022-12-15T18:37:18.680Z,98109.19
2022-12-15T18:39:46.840Z,98107.81
2022-12-15T18:42:20.430Z,98106.72
2022-12-15T18:44:52.488Z,98110.13
2022-12-15T18:47:22.923Z,98110.63
2022-12-15T18:49:49.912Z,98113.56
2022-12-15T18:52:20.045Z,98118.56
2022-12-15T18:54:49.512Z,98097.91
2022-12-15T18:57:38.203Z,98111.00
2022-12-15T19:00:18.752Z,98090.25
2022-12-15T19:02:46.091Z,98102.66
2022-12-15T19:05:28.522Z,98095.47
2022-12-15T19:08:18.528Z,98100.84
2022-12-15T19:10:56.143Z,98095.81
2022-12-15T19:13:31.601Z,98100.09
2022-12-15T19:16:00.114Z,98101.66
2022-12-15T19:18:46.244Z,98102.66
2022-12-15T19:21:39.754Z,98104.63
2022-12-15T19:24:10.942Z,98113.53
2022-12-15T19:26:40.554Z,98122.97
2022-12-15T19:29:18.236Z,98113.91
2022-12-15T19:31:47.170Z,98127.09
2022-12-15T19:34:14.584Z,98133.19
2022-12-15T19:36:41.632Z,98140.53
2022-12-15T19:39:19.606Z,98137.97
2022-12-15T19:41:46.794Z,98121.47
2022-12-15T19:44:17.270Z,98129.69
2022-12-15T19:46:45.473Z,98129.81
2022-12-15T19:49:12.324Z,98133.34
2022-12-15T19:51:39.542Z,98126.50
2022-12-15T19:54:06.974Z,98127.59
2022-12-15T19:56:34.056Z,98137.59
2022-12-15T19:59:00.844Z,98141.03
2022-12-15T20:01:28.257Z,98138.97
2022-12-15T20:03:55.114Z,98134.94
2022-12-15T20:06:27.582Z,98148.75
2022-12-15T20:08:56.871Z,98148.00
2022-12-15T20:11:26.446Z,98139.31
2022-12-15T20:13:54.401Z,98144.19
2022-12-15T20:16:22.505Z,98153.09
2022-12-15T20:18:52.507Z,98143.69
2022-12-15T20:21:22.595Z,98151.50
2022-12-15T20:23:56.617Z,98146.63
2022-12-15T20:26:24.884Z,98145.38
2022-12-15T20:28:53.218Z,98140.72
2022-12-15T20:31:23.848Z,98153.81
2022-12-15T20:33:51.883Z,98146.47
2022-12-15T20:36:24.959Z,98133.84
2022-12-15T20:38:53.355Z,98131.03
2022-12-15T20:41:26.469Z,98129.09
2022-12-15T20:43:54.840Z,98129.97
2022-12-15T20:46:24.713Z,98134.84
2022-12-15T20:48:54.110Z,98137.78
2022-12-15T20:51:30.338Z,98139.22
2022-12-15T20:54:03.924Z,98142.19
2022-12-15T20:56:31.400Z,98133.25
2022-12-15T20:58:58.806Z,98126.44
2022-12-15T21:01:32.288Z,98149.28
2022-12-15T21:04:01.878Z,98141.31
2022-12-15T21:06:29.623Z,98142.91
2022-12-15T21:08:57.082Z,98141.31
2022-12-15T21:11:31.146Z,98142.91
2022-12-15T21:14:04.593Z,98134.38
2022-12-15T21:16:32.783Z,98136.53
2022-12-15T21:19:19.779Z,98132.91
2022-12-15T21:21:55.556Z,98143.53
2022-12-15T21:24:25.918Z,98136.19
2022-12-15T21:26:53.590Z,98139.00
2022-12-15T21:29:24.788Z,98135.34
2022-12-15T21:31:51.912Z,98119.19
2022-12-15T21:34:18.838Z,98125.44
2022-12-15T21:36:49.859Z,98124.47
2022-12-15T21:39:25.378Z,98124.31
2022-12-15T21:41:55.134Z,98121.63
2022-12-15T21:44:22.192Z,98119.44
2022-12-15T21:46:49.418Z,98124.47
2022-12-15T21:49:18.994Z,98130.81
2022-12-15T21:51:52.248Z,98122.63
2022-12-15T21:54:30.911Z,98125.44
2022-12-15T21:56:59.904Z,98110.66
2022-12-15T21:59:30.602Z,98115.31
2022-12-15T22:01:59.278Z,98114.44
2022-12-15T22:04:33.274Z,98108.94
2022-12-15T22:07:01.742Z,98116.28
2022-12-15T22:09:28.753Z,98112.88
2022-12-15T22:11:57.132Z,98122.78
2022-12-15T22:14:25.447Z,98128.28
2022-12-15T22:16:53.773Z,98124.97
2022-12-15T22:19:22.178Z,98118.13
2022-12-15T22:21:49.736Z,98117.03
2022-12-15T22:24:16.778Z,98127.91
2022-12-15T22:26:44.815Z,98123.50
2022-12-15T22:29:21.628Z,98120.22
2022-12-15T22:31:51.293Z,98114.00
2022-12-15T22:34:21.472Z,98117.06
2022-12-15T22:36:49.787Z,98120.84
2022-12-15T22:39:19.135Z,98106.09
2022-12-15T22:41:50.008Z,98120.38
2022-12-15T22:44:22.754Z,98124.91
2022-12-15T22:46:51.840Z,98127.22
2022-12-15T22:49:21.677Z,98120.88
2022-12-15T22:51:49.203Z,98112.81
2022-12-15T22:54:25.697Z,98112.94
2022-12-15T22:56:58.797Z,98110.25
2022-12-15T22:59:35.776Z,98104.03
2022-12-15T23:02:03.741Z,98107.69
2022-12-15T23:04:31.988Z,98114.63
2022-12-15T23:07:02.023Z,98101.19
2022-12-15T23:09:30.315Z,98090.72
2022-12-15T23:11:59.077Z,98092.16
2022-12-15T23:14:44.710Z,98085.06
2022-12-15T23:17:13.716Z,98088.03
2022-12-15T23:19:44.709Z,98077.63
2022-12-15T23:22:12.074Z,98072.16
2022-12-15T23:24:39.220Z,98068.50
2022-12-15T23:27:10.479Z,98072.25
2022-12-15T23:29:37.775Z,98074.00
2022-12-15T23:32:04.821Z,98069.47
2022-12-15T23:34:31.649Z,98058.72
2022-12-15T23:36:58.563Z,98062.63
2022-12-15T23:39:25.993Z,98063.59
2022-12-15T23:41:52.891Z,98065.44
2022-12-15T23:44:20.298Z,98073.38
2022-12-15T23:46:47.276Z,98079.59
2022-12-15T23:49:15.572Z,98064.31
2022-12-15T23:51:42.422Z,98064.31
2022-12-15T23:54:09.899Z,98074.22
2022-12-15T23:56:39.468Z,98077.75
2022-12-15T23:59:06.559Z,98068.00
